sensor_id;sensor_type;location;lat;lon;timestamp;P1;durP1;ratioP1;P2;durP2;ratioP2
39454;SDS011;25155;41.890;23.446;2024-01-25T00:01:15;29.95;;;18.77;;
39454;SDS011;25155;41.890;23.446;2024-01-25T00:03:42;27.52;;;17.80;;
39454;SDS011;25155;41.890;23.446;2024-01-25T00:06:09;26.80;;;17.63;;
39454;SDS011;25155;41.890;23.446;2024-01-25T00:08:37;32.95;;;21.52;;
39454;SDS011;25155;41.890;23.446;2024-01-25T00:11:05;33.67;;;21.35;;
39454;SDS011;25155;41.890;23.446;2024-01-25T00:13:32;42.75;;;25.23;;
39454;SDS011;25155;41.890;23.446;2024-01-25T00:15:59;39.28;;;24.30;;
39454;SDS011;25155;41.890;23.446;2024-01-25T00:18:26;40.25;;;25.73;;
39454;SDS011;25155;41.890;23.446;2024-01-25T00:20:55;54.55;;;35.03;;
39454;SDS011;25155;41.890;23.446;2024-01-25T00:23:22;46.45;;;28.88;;
39454;SDS011;25155;41.890;23.446;2024-01-25T00:25:51;45.45;;;28.48;;
39454;SDS011;25155;41.890;23.446;2024-01-25T00:28:18;42.30;;;26.70;;
39454;SDS011;25155;41.890;23.446;2024-01-25T00:30:45;45.55;;;27.50;;
39454;SDS011;25155;41.890;23.446;2024-01-25T00:33:12;40.28;;;25.67;;
39454;SDS011;25155;41.890;23.446;2024-01-25T00:35:40;36.88;;;24.25;;
39454;SDS011;25155;41.890;23.446;2024-01-25T00:38:07;34.38;;;22.08;;
39454;SDS011;25155;41.890;23.446;2024-01-25T00:40:35;35.47;;;21.92;;
39454;SDS011;25155;41.890;23.446;2024-01-25T00:43:05;30.60;;;20.05;;
39454;SDS011;25155;41.890;23.446;2024-01-25T00:45:33;29.23;;;19.42;;
39454;SDS011;25155;41.890;23.446;2024-01-25T00:48:01;35.97;;;22.05;;
39454;SDS011;25155;41.890;23.446;2024-01-25T00:50:28;32.72;;;21.15;;
39454;SDS011;25155;41.890;23.446;2024-01-25T00:52:56;41.60;;;26.73;;
39454;SDS011;25155;41.890;23.446;2024-01-25T00:55:24;42.25;;;27.17;;
39454;SDS011;25155;41.890;23.446;2024-01-25T00:57:51;38.72;;;25.90;;
39454;SDS011;25155;41.890;23.446;2024-01-25T01:00:22;43.05;;;27.45;;
39454;SDS011;25155;41.890;23.446;2024-01-25T01:02:50;45.17;;;29.67;;
39454;SDS011;25155;41.890;23.446;2024-01-25T01:05:20;48.00;;;31.08;;
39454;SDS011;25155;41.890;23.446;2024-01-25T01:07:48;51.78;;;32.63;;
39454;SDS011;25155;41.890;23.446;2024-01-25T01:10:15;43.35;;;28.80;;
39454;SDS011;25155;41.890;23.446;2024-01-25T01:12:42;41.05;;;26.65;;
39454;SDS011;25155;41.890;23.446;2024-01-25T01:15:09;44.00;;;26.83;;
39454;SDS011;25155;41.890;23.446;2024-01-25T01:17:38;52.78;;;33.70;;
39454;SDS011;25155;41.890;23.446;2024-01-25T01:20:06;45.75;;;30.70;;
39454;SDS011;25155;41.890;23.446;2024-01-25T01:22:33;40.42;;;25.17;;
39454;SDS011;25155;41.890;23.446;2024-01-25T01:25:00;34.60;;;22.10;;
39454;SDS011;25155;41.890;23.446;2024-01-25T01:27:27;33.97;;;22.45;;
39454;SDS011;25155;41.890;23.446;2024-01-25T01:29:54;44.70;;;28.05;;
39454;SDS011;25155;41.890;23.446;2024-01-25T01:32:21;36.75;;;23.55;;
39454;SDS011;25155;41.890;23.446;2024-01-25T01:34:50;37.08;;;24.20;;
39454;SDS011;25155;41.890;23.446;2024-01-25T01:37:17;31.60;;;19.25;;
39454;SDS011;25155;41.890;23.446;2024-01-25T01:39:44;27.58;;;17.67;;
39454;SDS011;25155;41.890;23.446;2024-01-25T01:42:11;24.60;;;15.38;;
39454;SDS011;25155;41.890;23.446;2024-01-25T01:44:38;33.75;;;22.65;;
39454;SDS011;25155;41.890;23.446;2024-01-25T01:47:06;30.98;;;20.35;;
39454;SDS011;25155;41.890;23.446;2024-01-25T01:49:33;29.13;;;18.35;;
39454;SDS011;25155;41.890;23.446;2024-01-25T01:52:02;49.88;;;30.60;;
39454;SDS011;25155;41.890;23.446;2024-01-25T01:54:31;43.05;;;26.83;;
39454;SDS011;25155;41.890;23.446;2024-01-25T01:56:58;42.22;;;28.27;;
39454;SDS011;25155;41.890;23.446;2024-01-25T01:59:25;59.13;;;35.10;;
39454;SDS011;25155;41.890;23.446;2024-01-25T02:01:54;63.13;;;40.55;;
39454;SDS011;25155;41.890;23.446;2024-01-25T02:04:21;69.75;;;40.75;;
39454;SDS011;25155;41.890;23.446;2024-01-25T02:06:48;80.03;;;48.90;;
39454;SDS011;25155;41.890;23.446;2024-01-25T02:09:16;62.78;;;39.53;;
39454;SDS011;25155;41.890;23.446;2024-01-25T02:11:44;61.08;;;35.95;;
39454;SDS011;25155;41.890;23.446;2024-01-25T02:14:11;47.85;;;31.38;;
39454;SDS011;25155;41.890;23.446;2024-01-25T02:16:38;52.90;;;32.90;;
39454;SDS011;25155;41.890;23.446;2024-01-25T02:19:05;53.28;;;32.45;;
39454;SDS011;25155;41.890;23.446;2024-01-25T02:21:32;49.55;;;31.98;;
39454;SDS011;25155;41.890;23.446;2024-01-25T02:24:01;57.45;;;36.95;;
39454;SDS011;25155;41.890;23.446;2024-01-25T02:26:28;45.10;;;30.88;;
39454;SDS011;25155;41.890;23.446;2024-01-25T02:28:55;38.03;;;26.50;;
39454;SDS011;25155;41.890;23.446;2024-01-25T02:31:22;51.70;;;34.10;;
39454;SDS011;25155;41.890;23.446;2024-01-25T02:33:49;53.13;;;34.13;;
39454;SDS011;25155;41.890;23.446;2024-01-25T02:36:16;63.60;;;39.05;;
39454;SDS011;25155;41.890;23.446;2024-01-25T02:38:43;64.18;;;41.55;;
39454;SDS011;25155;41.890;23.446;2024-01-25T02:41:12;75.50;;;46.83;;
39454;SDS011;25155;41.890;23.446;2024-01-25T02:43:39;62.40;;;39.47;;
39454;SDS011;25155;41.890;23.446;2024-01-25T02:46:07;50.67;;;33.53;;
39454;SDS011;25155;41.890;23.446;2024-01-25T02:48:34;49.95;;;32.25;;
39454;SDS011;25155;41.890;23.446;2024-01-25T02:51:01;68.18;;;43.00;;
39454;SDS011;25155;41.890;23.446;2024-01-25T02:53:28;74.75;;;47.13;;
39454;SDS011;25155;41.890;23.446;2024-01-25T02:55:56;74.53;;;46.63;;
39454;SDS011;25155;41.890;23.446;2024-01-25T02:58:24;55.10;;;35.35;;
39454;SDS011;25155;41.890;23.446;2024-01-25T03:00:51;49.42;;;31.90;;
39454;SDS011;25155;41.890;23.446;2024-01-25T03:03:18;39.38;;;26.02;;
39454;SDS011;25155;41.890;23.446;2024-01-25T03:05:45;41.90;;;28.77;;
39454;SDS011;25155;41.890;23.446;2024-01-25T03:08:12;41.90;;;26.80;;
39454;SDS011;25155;41.890;23.446;2024-01-25T03:10:39;44.17;;;27.83;;
39454;SDS011;25155;41.890;23.446;2024-01-25T03:13:06;36.83;;;25.00;;
39454;SDS011;25155;41.890;23.446;2024-01-25T03:15:35;44.13;;;28.05;;
39454;SDS011;25155;41.890;23.446;2024-01-25T03:18:02;43.42;;;26.92;;
39454;SDS011;25155;41.890;23.446;2024-01-25T03:20:29;41.60;;;27.33;;
39454;SDS011;25155;41.890;23.446;2024-01-25T03:22:56;39.35;;;24.95;;
39454;SDS011;25155;41.890;23.446;2024-01-25T03:25:23;29.58;;;20.10;;
39454;SDS011;25155;41.890;23.446;2024-01-25T03:27:50;30.27;;;20.45;;
39454;SDS011;25155;41.890;23.446;2024-01-25T03:30:18;31.20;;;20.27;;
39454;SDS011;25155;41.890;23.446;2024-01-25T03:32:46;38.30;;;25.65;;
39454;SDS011;25155;41.890;23.446;2024-01-25T03:35:14;38.33;;;25.63;;
39454;SDS011;25155;41.890;23.446;2024-01-25T03:37:41;42.90;;;29.10;;
39454;SDS011;25155;41.890;23.446;2024-01-25T03:40:08;46.70;;;33.38;;
39454;SDS011;25155;41.890;23.446;2024-01-25T03:42:36;46.25;;;30.83;;
39454;SDS011;25155;41.890;23.446;2024-01-25T03:45:03;37.65;;;24.40;;
39454;SDS011;25155;41.890;23.446;2024-01-25T03:47:31;38.25;;;25.08;;
39454;SDS011;25155;41.890;23.446;2024-01-25T03:50:00;36.30;;;25.52;;
39454;SDS011;25155;41.890;23.446;2024-01-25T03:52:27;34.80;;;24.55;;
39454;SDS011;25155;41.890;23.446;2024-01-25T03:54:55;34.78;;;23.38;;
39454;SDS011;25155;41.890;23.446;2024-01-25T03:57:22;32.40;;;21.75;;
39454;SDS011;25155;41.890;23.446;2024-01-25T03:59:49;29.00;;;18.83;;
39454;SDS011;25155;41.890;23.446;2024-01-25T04:02:16;24.55;;;16.25;;
39454;SDS011;25155;41.890;23.446;2024-01-25T04:04:44;24.15;;;14.73;;
39454;SDS011;25155;41.890;23.446;2024-01-25T04:07:12;19.80;;;12.60;;
39454;SDS011;25155;41.890;23.446;2024-01-25T04:09:39;17.55;;;11.48;;
39454;SDS011;25155;41.890;23.446;2024-01-25T04:12:06;16.88;;;10.70;;
39454;SDS011;25155;41.890;23.446;2024-01-25T04:14:34;17.45;;;11.23;;
39454;SDS011;25155;41.890;23.446;2024-01-25T04:17:01;15.55;;;9.38;;
39454;SDS011;25155;41.890;23.446;2024-01-25T04:19:28;16.10;;;9.35;;
39454;SDS011;25155;41.890;23.446;2024-01-25T04:21:55;11.90;;;7.85;;
39454;SDS011;25155;41.890;23.446;2024-01-25T04:24:23;12.07;;;8.07;;
39454;SDS011;25155;41.890;23.446;2024-01-25T04:26:50;16.65;;;9.65;;
39454;SDS011;25155;41.890;23.446;2024-01-25T04:29:17;18.08;;;10.80;;
39454;SDS011;25155;41.890;23.446;2024-01-25T04:31:44;15.63;;;10.13;;
39454;SDS011;25155;41.890;23.446;2024-01-25T04:34:13;16.65;;;10.63;;
39454;SDS011;25155;41.890;23.446;2024-01-25T04:36:41;19.15;;;11.52;;
39454;SDS011;25155;41.890;23.446;2024-01-25T04:39:08;17.85;;;11.70;;
39454;SDS011;25155;41.890;23.446;2024-01-25T04:41:37;17.90;;;11.82;;
39454;SDS011;25155;41.890;23.446;2024-01-25T04:44:04;19.27;;;13.10;;
39454;SDS011;25155;41.890;23.446;2024-01-25T04:46:31;14.77;;;9.43;;
39454;SDS011;25155;41.890;23.446;2024-01-25T04:49:02;15.13;;;9.38;;
39454;SDS011;25155;41.890;23.446;2024-01-25T04:51:29;14.70;;;9.15;;
39454;SDS011;25155;41.890;23.446;2024-01-25T04:53:56;80.88;;;40.58;;
39454;SDS011;25155;41.890;23.446;2024-01-25T04:56:23;180.73;;;89.95;;
39454;SDS011;25155;41.890;23.446;2024-01-25T04:58:51;152.82;;;77.80;;
39454;SDS011;25155;41.890;23.446;2024-01-25T05:01:18;112.47;;;54.10;;
39454;SDS011;25155;41.890;23.446;2024-01-25T05:03:46;60.22;;;32.22;;
39454;SDS011;25155;41.890;23.446;2024-01-25T05:06:13;36.15;;;20.15;;
39454;SDS011;25155;41.890;23.446;2024-01-25T05:08:41;16.48;;;10.07;;
39454;SDS011;25155;41.890;23.446;2024-01-25T05:11:09;12.15;;;7.88;;
39454;SDS011;25155;41.890;23.446;2024-01-25T05:13:36;10.85;;;7.00;;
39454;SDS011;25155;41.890;23.446;2024-01-25T05:16:05;12.40;;;7.90;;
39454;SDS011;25155;41.890;23.446;2024-01-25T05:18:32;9.07;;;6.32;;
39454;SDS011;25155;41.890;23.446;2024-01-25T05:20:59;9.07;;;5.80;;
39454;SDS011;25155;41.890;23.446;2024-01-25T05:23:26;20.75;;;12.32;;
39454;SDS011;25155;41.890;23.446;2024-01-25T05:25:54;38.75;;;23.90;;
39454;SDS011;25155;41.890;23.446;2024-01-25T05:28:21;104.10;;;58.40;;
39454;SDS011;25155;41.890;23.446;2024-01-25T05:30:49;109.65;;;67.80;;
39454;SDS011;25155;41.890;23.446;2024-01-25T05:33:18;97.57;;;59.72;;
39454;SDS011;25155;41.890;23.446;2024-01-25T05:35:45;85.72;;;54.42;;
39454;SDS011;25155;41.890;23.446;2024-01-25T05:38:12;89.93;;;54.97;;
39454;SDS011;25155;41.890;23.446;2024-01-25T05:40:39;88.47;;;55.65;;
39454;SDS011;25155;41.890;23.446;2024-01-25T05:43:06;87.80;;;53.60;;
39454;SDS011;25155;41.890;23.446;2024-01-25T05:45:34;81.35;;;53.65;;
39454;SDS011;25155;41.890;23.446;2024-01-25T05:48:01;78.38;;;48.05;;
39454;SDS011;25155;41.890;23.446;2024-01-25T05:50:29;67.93;;;44.72;;
39454;SDS011;25155;41.890;23.446;2024-01-25T05:52:56;72.50;;;46.95;;
39454;SDS011;25155;41.890;23.446;2024-01-25T05:55:23;38.95;;;24.83;;
39454;SDS011;25155;41.890;23.446;2024-01-25T05:57:50;19.92;;;13.20;;
39454;SDS011;25155;41.890;23.446;2024-01-25T06:00:17;17.08;;;11.32;;
39454;SDS011;25155;41.890;23.446;2024-01-25T06:02:45;17.95;;;10.77;;
39454;SDS011;25155;41.890;23.446;2024-01-25T06:05:12;16.42;;;9.82;;
39454;SDS011;25155;41.890;23.446;2024-01-25T06:07:40;16.27;;;10.38;;
39454;SDS011;25155;41.890;23.446;2024-01-25T06:10:08;17.58;;;10.48;;
39454;SDS011;25155;41.890;23.446;2024-01-25T06:12:35;13.82;;;7.25;;
39454;SDS011;25155;41.890;23.446;2024-01-25T06:15:03;4.45;;;2.38;;
39454;SDS011;25155;41.890;23.446;2024-01-25T06:17:31;2.35;;;1.70;;
39454;SDS011;25155;41.890;23.446;2024-01-25T06:19:58;2.97;;;1.83;;
39454;SDS011;25155;41.890;23.446;2024-01-25T06:22:25;3.00;;;1.63;;
39454;SDS011;25155;41.890;23.446;2024-01-25T06:24:53;3.20;;;1.70;;
39454;SDS011;25155;41.890;23.446;2024-01-25T06:27:23;3.47;;;1.80;;
39454;SDS011;25155;41.890;23.446;2024-01-25T06:29:50;2.42;;;1.52;;
39454;SDS011;25155;41.890;23.446;2024-01-25T06:32:17;2.08;;;1.30;;
39454;SDS011;25155;41.890;23.446;2024-01-25T06:34:44;1.88;;;1.30;;
39454;SDS011;25155;41.890;23.446;2024-01-25T06:37:11;2.72;;;1.48;;
39454;SDS011;25155;41.890;23.446;2024-01-25T06:39:40;3.83;;;1.27;;
39454;SDS011;25155;41.890;23.446;2024-01-25T06:42:09;4.50;;;1.60;;
39454;SDS011;25155;41.890;23.446;2024-01-25T06:44:36;2.03;;;1.20;;
39454;SDS011;25155;41.890;23.446;2024-01-25T06:47:03;2.60;;;1.40;;
39454;SDS011;25155;41.890;23.446;2024-01-25T06:49:31;3.70;;;1.30;;
39454;SDS011;25155;41.890;23.446;2024-01-25T06:51:58;3.28;;;1.70;;
39454;SDS011;25155;41.890;23.446;2024-01-25T06:54:25;3.15;;;1.55;;
39454;SDS011;25155;41.890;23.446;2024-01-25T06:56:52;2.97;;;1.40;;
39454;SDS011;25155;41.890;23.446;2024-01-25T06:59:20;2.03;;;1.30;;
39454;SDS011;25155;41.890;23.446;2024-01-25T07:01:47;2.13;;;1.30;;
39454;SDS011;25155;41.890;23.446;2024-01-25T07:04:14;3.50;;;1.60;;
39454;SDS011;25155;41.890;23.446;2024-01-25T07:06:41;2.40;;;1.33;;
39454;SDS011;25155;41.890;23.446;2024-01-25T07:09:08;2.13;;;1.30;;
39454;SDS011;25155;41.890;23.446;2024-01-25T07:11:36;3.53;;;1.40;;
39454;SDS011;25155;41.890;23.446;2024-01-25T07:14:03;1.75;;;1.35;;
39454;SDS011;25155;41.890;23.446;2024-01-25T07:16:32;2.67;;;1.60;;
39454;SDS011;25155;41.890;23.446;2024-01-25T07:18:59;2.72;;;1.50;;
39454;SDS011;25155;41.890;23.446;2024-01-25T07:21:26;4.63;;;1.92;;
39454;SDS011;25155;41.890;23.446;2024-01-25T07:23:53;2.60;;;1.48;;
39454;SDS011;25155;41.890;23.446;2024-01-25T07:26:20;3.92;;;1.67;;
39454;SDS011;25155;41.890;23.446;2024-01-25T07:28:47;3.15;;;1.60;;
39454;SDS011;25155;41.890;23.446;2024-01-25T07:31:15;3.80;;;1.70;;
39454;SDS011;25155;41.890;23.446;2024-01-25T07:33:43;4.38;;;1.50;;
39454;SDS011;25155;41.890;23.446;2024-01-25T07:36:10;2.20;;;1.50;;
39454;SDS011;25155;41.890;23.446;2024-01-25T07:38:38;4.95;;;1.33;;
39454;SDS011;25155;41.890;23.446;2024-01-25T07:41:05;4.22;;;1.65;;
39454;SDS011;25155;41.890;23.446;2024-01-25T07:43:32;3.35;;;1.70;;
39454;SDS011;25155;41.890;23.446;2024-01-25T07:45:59;3.63;;;1.60;;
39454;SDS011;25155;41.890;23.446;2024-01-25T07:48:27;5.57;;;2.25;;
39454;SDS011;25155;41.890;23.446;2024-01-25T07:50:55;8.02;;;1.90;;
39454;SDS011;25155;41.890;23.446;2024-01-25T07:53:23;4.53;;;1.70;;
39454;SDS011;25155;41.890;23.446;2024-01-25T07:55:50;4.38;;;1.77;;
39454;SDS011;25155;41.890;23.446;2024-01-25T07:58:17;3.63;;;1.70;;
39454;SDS011;25155;41.890;23.446;2024-01-25T08:00:44;5.25;;;1.98;;
39454;SDS011;25155;41.890;23.446;2024-01-25T08:03:11;5.22;;;2.00;;
39454;SDS011;25155;41.890;23.446;2024-01-25T08:05:38;6.60;;;2.00;;
39454;SDS011;25155;41.890;23.446;2024-01-25T08:08:07;5.60;;;1.90;;
39454;SDS011;25155;41.890;23.446;2024-01-25T08:10:34;4.53;;;1.80;;
39454;SDS011;25155;41.890;23.446;2024-01-25T08:13:01;4.22;;;1.80;;
39454;SDS011;25155;41.890;23.446;2024-01-25T08:15:28;5.43;;;1.92;;
39454;SDS011;25155;41.890;23.446;2024-01-25T08:17:55;6.10;;;2.10;;
39454;SDS011;25155;41.890;23.446;2024-01-25T08:20:22;5.20;;;2.20;;
39454;SDS011;25155;41.890;23.446;2024-01-25T08:22:49;4.88;;;2.00;;
39454;SDS011;25155;41.890;23.446;2024-01-25T08:25:18;4.65;;;1.92;;
39454;SDS011;25155;41.890;23.446;2024-01-25T08:27:45;6.10;;;1.95;;
39454;SDS011;25155;41.890;23.446;2024-01-25T08:30:13;4.82;;;1.80;;
39454;SDS011;25155;41.890;23.446;2024-01-25T08:32:40;7.50;;;2.20;;
39454;SDS011;25155;41.890;23.446;2024-01-25T08:35:08;7.15;;;1.80;;
39454;SDS011;25155;41.890;23.446;2024-01-25T08:37:35;7.07;;;1.92;;
39454;SDS011;25155;41.890;23.446;2024-01-25T08:40:03;7.60;;;2.30;;
39454;SDS011;25155;41.890;23.446;2024-01-25T08:42:32;4.93;;;1.95;;
39454;SDS011;25155;41.890;23.446;2024-01-25T08:44:59;7.82;;;2.05;;
39454;SDS011;25155;41.890;23.446;2024-01-25T08:47:27;4.70;;;1.75;;
39454;SDS011;25155;41.890;23.446;2024-01-25T08:49:54;5.70;;;2.30;;
39454;SDS011;25155;41.890;23.446;2024-01-25T08:52:21;4.47;;;2.15;;
39454;SDS011;25155;41.890;23.446;2024-01-25T08:54:48;6.45;;;2.25;;
39454;SDS011;25155;41.890;23.446;2024-01-25T08:57:15;5.10;;;2.10;;
39454;SDS011;25155;41.890;23.446;2024-01-25T08:59:44;5.47;;;2.10;;
39454;SDS011;25155;41.890;23.446;2024-01-25T09:02:11;5.10;;;2.40;;
39454;SDS011;25155;41.890;23.446;2024-01-25T09:04:39;6.45;;;2.42;;
39454;SDS011;25155;41.890;23.446;2024-01-25T09:07:08;5.30;;;2.20;;
39454;SDS011;25155;41.890;23.446;2024-01-25T09:09:35;4.55;;;2.17;;
39454;SDS011;25155;41.890;23.446;2024-01-25T09:12:02;5.28;;;2.28;;
39454;SDS011;25155;41.890;23.446;2024-01-25T09:14:30;6.75;;;2.13;;
39454;SDS011;25155;41.890;23.446;2024-01-25T09:16:59;5.10;;;1.92;;
39454;SDS011;25155;41.890;23.446;2024-01-25T09:19:26;5.90;;;2.38;;
39454;SDS011;25155;41.890;23.446;2024-01-25T09:21:53;4.65;;;2.30;;
39454;SDS011;25155;41.890;23.446;2024-01-25T09:24:22;5.63;;;1.98;;
39454;SDS011;25155;41.890;23.446;2024-01-25T09:26:49;6.25;;;2.10;;
39454;SDS011;25155;41.890;23.446;2024-01-25T09:29:16;6.40;;;2.03;;
39454;SDS011;25155;41.890;23.446;2024-01-25T09:31:43;5.40;;;2.08;;
39454;SDS011;25155;41.890;23.446;2024-01-25T09:34:12;5.80;;;2.25;;
39454;SDS011;25155;41.890;23.446;2024-01-25T09:36:39;7.43;;;2.08;;
39454;SDS011;25155;41.890;23.446;2024-01-25T09:39:06;8.75;;;2.30;;
39454;SDS011;25155;41.890;23.446;2024-01-25T09:41:33;8.52;;;2.22;;
39454;SDS011;25155;41.890;23.446;2024-01-25T09:44:00;5.00;;;2.08;;
39454;SDS011;25155;41.890;23.446;2024-01-25T09:46:28;5.45;;;2.25;;
39454;SDS011;25155;41.890;23.446;2024-01-25T09:48:56;4.53;;;2.22;;
39454;SDS011;25155;41.890;23.446;2024-01-25T09:51:24;6.22;;;2.35;;
39454;SDS011;25155;41.890;23.446;2024-01-25T09:53:52;5.70;;;2.10;;
39454;SDS011;25155;41.890;23.446;2024-01-25T09:56:21;4.85;;;2.40;;
39454;SDS011;25155;41.890;23.446;2024-01-25T09:58:48;6.63;;;2.53;;
39454;SDS011;25155;41.890;23.446;2024-01-25T10:01:17;7.35;;;2.47;;
39454;SDS011;25155;41.890;23.446;2024-01-25T10:03:44;5.15;;;2.08;;
39454;SDS011;25155;41.890;23.446;2024-01-25T10:06:12;9.27;;;2.60;;
39454;SDS011;25155;41.890;23.446;2024-01-25T10:08:41;6.85;;;2.28;;
39454;SDS011;25155;41.890;23.446;2024-01-25T10:11:09;5.57;;;2.10;;
39454;SDS011;25155;41.890;23.446;2024-01-25T10:13:40;4.15;;;2.20;;
39454;SDS011;25155;41.890;23.446;2024-01-25T10:16:10;4.68;;;2.10;;
39454;SDS011;25155;41.890;23.446;2024-01-25T10:18:37;8.23;;;2.50;;
39454;SDS011;25155;41.890;23.446;2024-01-25T10:21:06;8.48;;;2.58;;
39454;SDS011;25155;41.890;23.446;2024-01-25T10:23:33;6.20;;;2.05;;
39454;SDS011;25155;41.890;23.446;2024-01-25T10:26:02;4.43;;;2.05;;
39454;SDS011;25155;41.890;23.446;2024-01-25T10:28:29;5.25;;;2.25;;
39454;SDS011;25155;41.890;23.446;2024-01-25T10:30:59;6.07;;;2.35;;
39454;SDS011;25155;41.890;23.446;2024-01-25T10:33:29;5.82;;;2.47;;
39454;SDS011;25155;41.890;23.446;2024-01-25T10:35:57;7.35;;;2.40;;
39454;SDS011;25155;41.890;23.446;2024-01-25T10:38:28;8.30;;;2.38;;
39454;SDS011;25155;41.890;23.446;2024-01-25T10:40:58;7.03;;;3.03;;
39454;SDS011;25155;41.890;23.446;2024-01-25T10:43:29;6.15;;;2.42;;
39454;SDS011;25155;41.890;23.446;2024-01-25T10:45:57;5.60;;;2.63;;
39454;SDS011;25155;41.890;23.446;2024-01-25T10:48:24;7.18;;;2.38;;
39454;SDS011;25155;41.890;23.446;2024-01-25T10:50:51;7.43;;;2.47;;
39454;SDS011;25155;41.890;23.446;2024-01-25T10:53:19;7.00;;;2.60;;
39454;SDS011;25155;41.890;23.446;2024-01-25T10:55:48;6.07;;;2.90;;
39454;SDS011;25155;41.890;23.446;2024-01-25T10:58:15;8.40;;;2.50;;
39454;SDS011;25155;41.890;23.446;2024-01-25T11:00:50;6.22;;;2.33;;
39454;SDS011;25155;41.890;23.446;2024-01-25T11:03:22;6.13;;;2.42;;
39454;SDS011;25155;41.890;23.446;2024-01-25T11:05:52;5.38;;;2.28;;
39454;SDS011;25155;41.890;23.446;2024-01-25T11:08:21;9.38;;;3.22;;
39454;SDS011;25155;41.890;23.446;2024-01-25T11:10:50;5.80;;;2.30;;
39454;SDS011;25155;41.890;23.446;2024-01-25T11:13:23;6.47;;;2.75;;
39454;SDS011;25155;41.890;23.446;2024-01-25T11:15:52;6.63;;;2.65;;
39454;SDS011;25155;41.890;23.446;2024-01-25T11:18:20;6.13;;;2.47;;
39454;SDS011;25155;41.890;23.446;2024-01-25T11:20:51;7.10;;;2.63;;
39454;SDS011;25155;41.890;23.446;2024-01-25T11:23:18;6.13;;;2.22;;
39454;SDS011;25155;41.890;23.446;2024-01-25T11:25:45;6.13;;;2.30;;
39454;SDS011;25155;41.890;23.446;2024-01-25T11:28:14;5.15;;;2.30;;
39454;SDS011;25155;41.890;23.446;2024-01-25T11:30:42;5.18;;;2.42;;
39454;SDS011;25155;41.890;23.446;2024-01-25T11:33:12;6.60;;;2.58;;
39454;SDS011;25155;41.890;23.446;2024-01-25T11:35:40;6.10;;;2.25;;
39454;SDS011;25155;41.890;23.446;2024-01-25T11:38:08;5.57;;;2.40;;
39454;SDS011;25155;41.890;23.446;2024-01-25T11:40:35;7.60;;;2.50;;
39454;SDS011;25155;41.890;23.446;2024-01-25T11:43:04;8.05;;;2.70;;
39454;SDS011;25155;41.890;23.446;2024-01-25T11:45:35;8.25;;;3.40;;
39454;SDS011;25155;41.890;23.446;2024-01-25T11:48:08;9.60;;;2.90;;
39454;SDS011;25155;41.890;23.446;2024-01-25T11:50:36;6.45;;;2.58;;
39454;SDS011;25155;41.890;23.446;2024-01-25T11:53:04;6.07;;;2.50;;
39454;SDS011;25155;41.890;23.446;2024-01-25T11:55:31;9.75;;;2.90;;
39454;SDS011;25155;41.890;23.446;2024-01-25T11:57:58;5.80;;;2.53;;
39454;SDS011;25155;41.890;23.446;2024-01-25T12:00:25;11.10;;;2.33;;
39454;SDS011;25155;41.890;23.446;2024-01-25T12:02:52;5.50;;;2.38;;
39454;SDS011;25155;41.890;23.446;2024-01-25T12:05:21;4.95;;;2.30;;
39454;SDS011;25155;41.890;23.446;2024-01-25T12:07:49;6.50;;;2.55;;
39454;SDS011;25155;41.890;23.446;2024-01-25T12:10:16;7.88;;;2.58;;
39454;SDS011;25155;41.890;23.446;2024-01-25T12:12:44;6.78;;;2.40;;
39454;SDS011;25155;41.890;23.446;2024-01-25T12:15:11;6.07;;;2.40;;
39454;SDS011;25155;41.890;23.446;2024-01-25T12:17:38;4.32;;;1.90;;
39454;SDS011;25155;41.890;23.446;2024-01-25T12:20:06;4.63;;;2.15;;
39454;SDS011;25155;41.890;23.446;2024-01-25T12:22:36;6.30;;;2.33;;
39454;SDS011;25155;41.890;23.446;2024-01-25T12:25:08;4.38;;;2.10;;
39454;SDS011;25155;41.890;23.446;2024-01-25T12:27:37;4.68;;;2.15;;
39454;SDS011;25155;41.890;23.446;2024-01-25T12:30:07;6.13;;;2.40;;
39454;SDS011;25155;41.890;23.446;2024-01-25T12:32:34;7.32;;;2.60;;
39454;SDS011;25155;41.890;23.446;2024-01-25T12:35:01;6.35;;;2.40;;
39454;SDS011;25155;41.890;23.446;2024-01-25T12:37:29;5.47;;;2.50;;
39454;SDS011;25155;41.890;23.446;2024-01-25T12:39:56;5.60;;;2.13;;
39454;SDS011;25155;41.890;23.446;2024-01-25T12:42:24;6.80;;;2.60;;
39454;SDS011;25155;41.890;23.446;2024-01-25T12:44:52;7.63;;;2.67;;
39454;SDS011;25155;41.890;23.446;2024-01-25T12:47:20;8.48;;;2.80;;
39454;SDS011;25155;41.890;23.446;2024-01-25T12:49:47;8.20;;;2.50;;
39454;SDS011;25155;41.890;23.446;2024-01-25T12:52:14;9.02;;;2.78;;
39454;SDS011;25155;41.890;23.446;2024-01-25T12:54:42;6.65;;;2.92;;
39454;SDS011;25155;41.890;23.446;2024-01-25T12:57:10;4.63;;;2.05;;
39454;SDS011;25155;41.890;23.446;2024-01-25T12:59:38;8.43;;;2.78;;
39454;SDS011;25155;41.890;23.446;2024-01-25T13:02:05;7.15;;;2.70;;
39454;SDS011;25155;41.890;23.446;2024-01-25T13:04:34;8.15;;;2.95;;
39454;SDS011;25155;41.890;23.446;2024-01-25T13:07:01;8.38;;;2.65;;
39454;SDS011;25155;41.890;23.446;2024-01-25T13:09:28;9.07;;;3.03;;
39454;SDS011;25155;41.890;23.446;2024-01-25T13:11:58;6.00;;;2.30;;
39454;SDS011;25155;41.890;23.446;2024-01-25T13:14:26;5.75;;;2.17;;
39454;SDS011;25155;41.890;23.446;2024-01-25T13:16:54;8.73;;;2.78;;
39454;SDS011;25155;41.890;23.446;2024-01-25T13:19:22;7.40;;;2.50;;
39454;SDS011;25155;41.890;23.446;2024-01-25T13:21:49;7.47;;;2.65;;
39454;SDS011;25155;41.890;23.446;2024-01-25T13:24:17;8.35;;;2.72;;
39454;SDS011;25155;41.890;23.446;2024-01-25T13:26:45;5.78;;;2.38;;
39454;SDS011;25155;41.890;23.446;2024-01-25T13:29:12;6.22;;;2.60;;
39454;SDS011;25155;41.890;23.446;2024-01-25T13:31:39;7.32;;;2.53;;
39454;SDS011;25155;41.890;23.446;2024-01-25T13:34:08;7.68;;;2.70;;
39454;SDS011;25155;41.890;23.446;2024-01-25T13:36:35;5.82;;;2.45;;
39454;SDS011;25155;41.890;23.446;2024-01-25T13:39:02;6.30;;;2.40;;
39454;SDS011;25155;41.890;23.446;2024-01-25T13:41:30;9.25;;;2.75;;
39454;SDS011;25155;41.890;23.446;2024-01-25T13:43:57;7.05;;;2.42;;
39454;SDS011;25155;41.890;23.446;2024-01-25T13:46:24;6.35;;;2.60;;
39454;SDS011;25155;41.890;23.446;2024-01-25T13:48:51;7.10;;;2.53;;
39454;SDS011;25155;41.890;23.446;2024-01-25T13:51:20;6.00;;;2.88;;
39454;SDS011;25155;41.890;23.446;2024-01-25T13:53:47;7.72;;;2.65;;
39454;SDS011;25155;41.890;23.446;2024-01-25T13:56:14;8.15;;;2.90;;
39454;SDS011;25155;41.890;23.446;2024-01-25T13:58:41;7.28;;;2.80;;
39454;SDS011;25155;41.890;23.446;2024-01-25T14:01:08;5.35;;;2.45;;
39454;SDS011;25155;41.890;23.446;2024-01-25T14:03:35;6.97;;;2.70;;
39454;SDS011;25155;41.890;23.446;2024-01-25T14:06:03;5.65;;;2.45;;
39454;SDS011;25155;41.890;23.446;2024-01-25T14:08:31;7.97;;;2.60;;
39454;SDS011;25155;41.890;23.446;2024-01-25T14:10:58;8.93;;;2.72;;
39454;SDS011;25155;41.890;23.446;2024-01-25T14:13:26;7.30;;;2.80;;
39454;SDS011;25155;41.890;23.446;2024-01-25T14:15:53;7.45;;;2.83;;
39454;SDS011;25155;41.890;23.446;2024-01-25T14:18:20;8.73;;;2.83;;
39454;SDS011;25155;41.890;23.446;2024-01-25T14:20:47;6.43;;;2.50;;
39454;SDS011;25155;41.890;23.446;2024-01-25T14:23:14;8.93;;;2.67;;
39454;SDS011;25155;41.890;23.446;2024-01-25T14:25:42;7.15;;;2.83;;